Terminal Aerodrome Forecast
Issued by NWS

Home | Current Version | Previous Version | Text Only | Print | Product List | Glossary On
Versions: 1 2 3 4 5 6 7 8 9 10 11 12 13 14 15 16 17 18 19 20 21
990
FTUS46 KHNX 072330
TAFFAT
TAF
KFAT 072330Z 0800/0824 VRB03KT 5SM HZ BKN100 OVC200
     FM081200 10007KT P6SM BKN050 OVC070 PROB30 0812/0818 -RA BKN030
      OVC050
     FM081800 13010KT P6SM BKN025 OVC050 PROB30 0818/0824 -RA BKN010
      OVC020=

USA.gov is the U.S. government's official web portal to all federal, state and local government web resources and services.